Time;durP1;ratioP1;P1;durP2;ratioP2;P2;SDS_P1;SDS_P2;PMS_P1;PMS_P2;Temp;Humidity;BMP_temperature;BMP_pressure;BME280_temperature;BME280_humidity;BME280_pressure;Samples;Min_cycle;Max_cycle;Signal;HPM_P1;HPM_P2
2023/02/20 00:01:01;;;;;;;3.9;1.8;;;;;;;;;;;;;
2023/02/20 00:03:31;;;;;;;2.7;1.8;;;;;;;;;;;;;
2023/02/20 00:05:55;;;;;;;3.5;2.2;;;;;;;;;;;;;
2023/02/20 00:08:21;;;;;;;3;1.8;;;;;;;;;;;;;
2023/02/20 00:10:46;;;;;;;4.2;2.3;;;;;;;;;;;;;
2023/02/20 00:13:20;;;;;;;4.1;2.3;;;;;;;;;;;;;
2023/02/20 00:15:47;;;;;;;3;1.9;;;;;;;;;;;;;
2023/02/20 00:18:12;;;;;;;3.9;1.9;;;;;;;;;;;;;
2023/02/20 00:20:37;;;;;;;12.8;2.7;;;;;;;;;;;;;
2023/02/20 00:23:02;;;;;;;3.3;1.9;;;;;;;;;;;;;
2023/02/20 00:25:34;;;;;;;2.6;1.8;;;;;;;;;;;;;
2023/02/20 00:28:03;;;;;;;2.6;1.9;;;;;;;;;;;;;
2023/02/20 00:30:32;;;;;;;6;2.2;;;;;;;;;;;;;
2023/02/20 00:32:57;;;;;;;4.2;2.4;;;;;;;;;;;;;
2023/02/20 00:35:24;;;;;;;2.1;1.5;;;;;;;;;;;;;
2023/02/20 00:37:49;;;;;;;2.5;2.1;;;;;;;;;;;;;
2023/02/20 00:40:17;;;;;;;3.7;1.9;;;;;;;;;;;;;
2023/02/20 00:42:42;;;;;;;2.6;1.8;;;;;;;;;;;;;
2023/02/20 00:45:10;;;;;;;3.2;1.8;;;;;;;;;;;;;
2023/02/20 00:47:35;;;;;;;3.4;2;;;;;;;;;;;;;
2023/02/20 00:50:00;;;;;;;4.2;2;;;;;;;;;;;;;
2023/02/20 00:52:25;;;;;;;3.8;2.1;;;;;;;;;;;;;
2023/02/20 00:54:52;;;;;;;2.8;1.8;;;;;;;;;;;;;
2023/02/20 00:57:17;;;;;;;3.4;2.2;;;;;;;;;;;;;
2023/02/20 00:59:42;;;;;;;2.9;2.4;;;;;;;;;;;;;
2023/02/20 01:02:08;;;;;;;3;2;;;;;;;;;;;;;
2023/02/20 01:04:35;;;;;;;2.6;1.7;;;;;;;;;;;;;
2023/02/20 01:07:00;;;;;;;2.7;1.8;;;;;;;;;;;;;
2023/02/20 01:09:27;;;;;;;3.7;2;;;;;;;;;;;;;
2023/02/20 01:11:51;;;;;;;2.6;1.9;;;;;;;;;;;;;
2023/02/20 01:14:19;;;;;;;4.2;2.8;;;;;;;;;;;;;
2023/02/20 01:16:44;;;;;;;4.1;3;;;;;;;;;;;;;
2023/02/20 01:19:12;;;;;;;3.9;2.7;;;;;;;;;;;;;
2023/02/20 01:21:37;;;;;;;3.6;2.4;;;;;;;;;;;;;
2023/02/20 01:24:06;;;;;;;4;2.2;;;;;;;;;;;;;
2023/02/20 01:26:31;;;;;;;3;2;;;;;;;;;;;;;
2023/02/20 01:28:56;;;;;;;2.3;1.5;;;;;;;;;;;;;
2023/02/20 01:31:22;;;;;;;2.9;1.6;;;;;;;;;;;;;
2023/02/20 01:33:48;;;;;;;3.9;1.9;;;;;;;;;;;;;
2023/02/20 01:36:13;;;;;;;4.3;1.9;;;;;;;;;;;;;
2023/02/20 01:38:39;;;;;;;2.1;1.7;;;;;;;;;;;;;
2023/02/20 01:41:04;;;;;;;2.1;1.6;;;;;;;;;;;;;
2023/02/20 01:43:30;;;;;;;1.7;1.6;;;;;;;;;;;;;
2023/02/20 01:45:55;;;;;;;1.7;1.6;;;;;;;;;;;;;
2023/02/20 01:48:20;;;;;;;3.3;1.6;;;;;;;;;;;;;
2023/02/20 01:50:45;;;;;;;2.5;1.5;;;;;;;;;;;;;
2023/02/20 01:53:10;;;;;;;1.9;1.4;;;;;;;;;;;;;
2023/02/20 01:55:36;;;;;;;1.9;1.4;;;;;;;;;;;;;
2023/02/20 01:58:01;;;;;;;2.3;1.5;;;;;;;;;;;;;
2023/02/20 02:00:28;;;;;;;1.7;1.5;;;;;;;;;;;;;
2023/02/20 02:02:53;;;;;;;3.2;2;;;;;;;;;;;;;
2023/02/20 02:05:20;;;;;;;3.6;2.3;;;;;;;;;;;;;
2023/02/20 02:07:45;;;;;;;3.3;1.7;;;;;;;;;;;;;
2023/02/20 02:10:13;;;;;;;3.4;1.9;;;;;;;;;;;;;
2023/02/20 02:12:38;;;;;;;2.9;1.5;;;;;;;;;;;;;
2023/02/20 02:15:04;;;;;;;1.8;1.6;;;;;;;;;;;;;
2023/02/20 02:17:29;;;;;;;3.9;1.8;;;;;;;;;;;;;
2023/02/20 02:19:55;;;;;;;2.1;1.6;;;;;;;;;;;;;
2023/02/20 02:22:20;;;;;;;3.4;1.7;;;;;;;;;;;;;
2023/02/20 02:24:45;;;;;;;2.8;2.3;;;;;;;;;;;;;
2023/02/20 02:27:10;;;;;;;2;1.5;;;;;;;;;;;;;
2023/02/20 02:29:37;;;;;;;2.1;1.5;;;;;;;;;;;;;
2023/02/20 02:32:02;;;;;;;1.6;1.3;;;;;;;;;;;;;
2023/02/20 02:34:27;;;;;;;6.1;5.6;;;;;;;;;;;;;
2023/02/20 02:36:52;;;;;;;2.2;2;;;;;;;;;;;;;
2023/02/20 02:39:20;;;;;;;3.8;1.9;;;;;;;;;;;;;
2023/02/20 02:41:45;;;;;;;3.8;1.8;;;;;;;;;;;;;
2023/02/20 02:44:10;;;;;;;6.1;1.8;;;;;;;;;;;;;
2023/02/20 02:46:36;;;;;;;3.5;1.6;;;;;;;;;;;;;
2023/02/20 02:49:01;;;;;;;3.1;2.1;;;;;;;;;;;;;
2023/02/20 02:51:26;;;;;;;3.4;1.9;;;;;;;;;;;;;
2023/02/20 02:53:53;;;;;;;2.2;1.6;;;;;;;;;;;;;
2023/02/20 02:56:26;;;;;;;2.3;1.7;;;;;;;;;;;;;
2023/02/20 02:58:43;;;;;;;2.8;1.6;;;;;;;;;;;;;
2023/02/20 03:01:08;;;;;;;2.7;1.7;;;;;;;;;;;;;
2023/02/20 03:03:33;;;;;;;1.4;1.2;;;;;;;;;;;;;
2023/02/20 03:05:58;;;;;;;3.1;1.7;;;;;;;;;;;;;
2023/02/20 03:08:29;;;;;;;1.7;1.4;;;;;;;;;;;;;
2023/02/20 03:10:52;;;;;;;1.3;1.2;;;;;;;;;;;;;
2023/02/20 03:13:14;;;;;;;1.3;1.2;;;;;;;;;;;;;
2023/02/20 03:15:39;;;;;;;2.5;1.3;;;;;;;;;;;;;
2023/02/20 03:18:09;;;;;;;2.2;1.1;;;;;;;;;;;;;
2023/02/20 03:20:29;;;;;;;1.3;1.2;;;;;;;;;;;;;
2023/02/20 03:22:55;;;;;;;2.2;1.3;;;;;;;;;;;;;
2023/02/20 03:25:20;;;;;;;1.2;1.1;;;;;;;;;;;;;
2023/02/20 03:27:45;;;;;;;2.3;1.4;;;;;;;;;;;;;
2023/02/20 03:30:14;;;;;;;2.5;1.5;;;;;;;;;;;;;
2023/02/20 03:44:45;;;;;;;2.2;1.6;;;;;;;;;;;;;
2023/02/20 03:47:11;;;;;;;1.3;1.2;;;;;;;;;;;;;
2023/02/20 03:49:36;;;;;;;2.1;1.4;;;;;;;;;;;;;
2023/02/20 03:52:01;;;;;;;3.2;1.3;;;;;;;;;;;;;
2023/02/20 03:54:27;;;;;;;2.6;1.9;;;;;;;;;;;;;
2023/02/20 03:56:54;;;;;;;2.5;1.6;;;;;;;;;;;;;
2023/02/20 03:59:18;;;;;;;2.9;1.5;;;;;;;;;;;;;
2023/02/20 04:02:34;;;;;;;3;1.7;;;;;;;4.52;80.32031;947.0733;;;;
2023/02/20 04:04:59;;;;;;;3.9;2.5;;;;;;;4.32;81.11523;947.0926;;;;
2023/02/20 04:07:26;;;;;;;2.1;1.6;;;;;;;4.34;81.27637;946.9996;;;;
2023/02/20 04:09:53;;;;;;;2;1.7;;;;;;;4.36;80.80859;947.0679;;;;
2023/02/20 04:12:18;;;;;;;2;1.7;;;;;;;4.33;80.74609;947.1539;;;;
2023/02/20 04:14:43;;;;;;;3;2.3;;;;;;;4.35;81.01953;947.1375;;;;
2023/02/20 04:17:13;;;;;;;5.9;5.4;;;;;;;4.29;81.09863;947.181;;;;
2023/02/20 04:19:44;;;;;;;3.8;3.4;;;;;;;4.18;81.32422;947.1501;;;;
2023/02/20 04:22:09;;;;;;;3.5;2.8;;;;;;;4.12;81.3457;947.2847;;;;
2023/02/20 04:24:37;;;;;;;2;1.6;;;;;;;3.98;81.56738;947.2996;;;;
2023/02/20 04:27:03;;;;;;;1.6;1.3;;;;;;;3.8;82.5127;947.2994;;;;
2023/02/20 04:29:33;;;;;;;2.2;1.7;;;;;;;3.76;82.91992;947.2571;;;;
2023/02/20 04:31:58;;;;;;;2.7;1.8;;;;;;;3.61;83.30664;947.2319;;;;
2023/02/20 04:34:25;;;;;;;2.2;1.8;;;;;;;3.57;83.64648;947.3064;;;;
2023/02/20 04:36:51;;;;;;;4.2;1.8;;;;;;;;;;;;;
2023/02/20 04:39:16;;;;;;;2.5;1.8;;;;;;;;;;;;;
2023/02/20 04:41:41;;;;;;;4.8;2.3;;;;;;;;;;;;;
2023/02/20 04:46:33;;;;;;;5.7;1.9;;;;;;;;;;;;;
2023/02/20 04:49:01;;;;;;;3.6;2;;;;;;;;;;;;;
2023/02/20 04:51:26;;;;;;;2.4;1.9;;;;;;;;;;;;;
2023/02/20 04:53:51;;;;;;;4.1;1.9;;;;;;;;;;;;;
2023/02/20 04:56:17;;;;;;;3.4;2.1;;;;;;;;;;;;;
2023/02/20 04:58:44;;;;;;;3;1.9;;;;;;;;;;;;;
2023/02/20 05:01:09;;;;;;;2.8;2.2;;;;;;;;;;;;;
2023/02/20 05:03:35;;;;;;;2.5;2.1;;;;;;;;;;;;;
2023/02/20 05:06:00;;;;;;;2.7;2.1;;;;;;;;;;;;;
2023/02/20 05:08:26;;;;;;;3.6;2.7;;;;;;;;;;;;;
2023/02/20 05:10:51;;;;;;;4.7;2.8;;;;;;;;;;;;;
2023/02/20 05:13:16;;;;;;;4.6;2.1;;;;;;;;;;;;;
2023/02/20 05:15:41;;;;;;;4.1;1.9;;;;;;;;;;;;;
2023/02/20 05:18:09;;;;;;;4.1;1.9;;;;;;;;;;;;;
2023/02/20 05:22:59;;;;;;;2.5;1.7;;;;;;;;;;;;;
2023/02/20 05:25:24;;;;;;;2.5;1.4;;;;;;;;;;;;;
2023/02/20 05:27:49;;;;;;;1.9;1.5;;;;;;;;;;;;;
2023/02/20 05:30:14;;;;;;;2.2;1.8;;;;;;;;;;;;;
2023/02/20 05:32:40;;;;;;;3.6;1.7;;;;;;;;;;;;;
2023/02/20 05:35:05;;;;;;;3.1;1.7;;;;;;;;;;;;;
2023/02/20 05:37:31;;;;;;;1.8;1.7;;;;;;;;;;;;;
2023/02/20 05:39:56;;;;;;;4.2;2.1;;;;;;;;;;;;;
2023/02/20 05:42:23;;;;;;;1.6;1.5;;;;;;;;;;;;;
2023/02/20 05:44:49;;;;;;;4.5;2.8;;;;;;;;;;;;;
2023/02/20 05:47:15;;;;;;;3.9;2.5;;;;;;;;;;;;;
2023/02/20 05:49:40;;;;;;;2.4;1.9;;;;;;;;;;;;;
2023/02/20 05:52:10;;;;;;;4.2;3.4;;;;;;;;;;;;;
2023/02/20 05:54:31;;;;;;;3.1;2.2;;;;;;;;;;;;;
2023/02/20 05:56:56;;;;;;;2.4;1.7;;;;;;;;;;;;;
2023/02/20 05:59:21;;;;;;;2.6;2.3;;;;;;;;;;;;;
2023/02/20 06:01:51;;;;;;;3.4;2.4;;;;;;;;;;;;;
2023/02/20 06:04:14;;;;;;;4.8;3;;;;;;;;;;;;;
2023/02/20 06:06:40;;;;;;;3.7;2.3;;;;;;;;;;;;;
2023/02/20 06:09:06;;;;;;;4.4;2.7;;;;;;;;;;;;;
2023/02/20 06:11:32;;;;;;;2.3;2.1;;;;;;;;;;;;;
2023/02/20 06:13:57;;;;;;;3.2;2.1;;;;;;;;;;;;;
2023/02/20 06:16:22;;;;;;;3.4;3.1;;;;;;;;;;;;;
2023/02/20 06:18:47;;;;;;;3.3;3;;;;;;;;;;;;;
2023/02/20 06:21:13;;;;;;;4.5;2.9;;;;;;;;;;;;;
2023/02/20 06:23:38;;;;;;;4.1;3.7;;;;;;;;;;;;;
2023/02/20 06:26:03;;;;;;;11.3;8.5;;;;;;;;;;;;;
2023/02/20 06:28:29;;;;;;;11.9;10.7;;;;;;;;;;;;;
2023/02/20 06:30:54;;;;;;;10.8;10;;;;;;;;;;;;;
2023/02/20 06:33:21;;;;;;;4.8;3.2;;;;;;;;;;;;;
2023/02/20 06:35:46;;;;;;;2.9;1.8;;;;;;;;;;;;;
2023/02/20 06:38:13;;;;;;;3.7;1.9;;;;;;;;;;;;;
2023/02/20 06:40:38;;;;;;;2.7;1.8;;;;;;;;;;;;;
2023/02/20 06:43:08;;;;;;;3.5;2.7;;;;;;;;;;;;;
2023/02/20 06:45:36;;;;;;;3.7;2.7;;;;;;;;;;;;;
2023/02/20 06:48:02;;;;;;;3.2;2.3;;;;;;;;;;;;;
2023/02/20 06:50:27;;;;;;;3.1;2.6;;;;;;;;;;;;;
2023/02/20 06:52:52;;;;;;;2.7;2.3;;;;;;;;;;;;;
2023/02/20 06:55:19;;;;;;;4.2;3.1;;;;;;;;;;;;;
2023/02/20 06:57:44;;;;;;;3.7;2.9;;;;;;;;;;;;;
2023/02/20 07:00:13;;;;;;;5.3;3.5;;;;;;;;;;;;;
2023/02/20 07:02:37;;;;;;;4.8;3.5;;;;;;;;;;;;;
2023/02/20 07:05:04;;;;;;;5.4;3.5;;;;;;;;;;;;;
2023/02/20 07:07:29;;;;;;;6.4;4.4;;;;;;;;;;;;;
2023/02/20 07:09:55;;;;;;;6.4;4.8;;;;;;;;;;;;;
2023/02/20 07:12:20;;;;;;;6;4.2;;;;;;;;;;;;;
2023/02/20 07:14:45;;;;;;;6.3;4.1;;;;;;;;;;;;;
2023/02/20 07:17:11;;;;;;;5.5;4;;;;;;;;;;;;;
2023/02/20 07:19:36;;;;;;;5;3.4;;;;;;;;;;;;;
2023/02/20 07:22:02;;;;;;;5.4;3.3;;;;;;;;;;;;;
2023/02/20 07:24:28;;;;;;;5.4;3.4;;;;;;;;;;;;;
2023/02/20 07:26:53;;;;;;;4.3;3.5;;;;;;;;;;;;;
2023/02/20 07:29:19;;;;;;;4.3;3.1;;;;;;;;;;;;;
2023/02/20 07:31:46;;;;;;;5.3;3.2;;;;;;;;;;;;;
2023/02/20 07:34:11;;;;;;;4;2.9;;;;;;;;;;;;;
2023/02/20 07:36:38;;;;;;;3.6;2.7;;;;;;;;;;;;;
2023/02/20 07:39:03;;;;;;;3.4;2.5;;;;;;;;;;;;;
2023/02/20 07:41:30;;;;;;;5;2.2;;;;;;;;;;;;;
2023/02/20 07:43:55;;;;;;;2.8;2.2;;;;;;;;;;;;;
2023/02/20 07:46:21;;;;;;;2.3;2.1;;;;;;;;;;;;;
2023/02/20 07:48:46;;;;;;;2;1.8;;;;;;;;;;;;;
2023/02/20 07:51:12;;;;;;;2.1;1.6;;;;;;;;;;;;;
2023/02/20 07:53:37;;;;;;;3.1;2.2;;;;;;;;;;;;;
2023/02/20 07:56:02;;;;;;;4.4;2.6;;;;;;;;;;;;;
2023/02/20 07:58:27;;;;;;;3.1;2.3;;;;;;;;;;;;;
2023/02/20 08:00:53;;;;;;;5.6;2.5;;;;;;;;;;;;;
2023/02/20 08:03:17;;;;;;;4.6;2.2;;;;;;;;;;;;;
2023/02/20 08:05:44;;;;;;;4.5;2.5;;;;;;;;;;;;;
2023/02/20 08:08:09;;;;;;;3.6;2;;;;;;;;;;;;;
2023/02/20 08:10:35;;;;;;;2.5;2;;;;;;;;;;;;;
2023/02/20 08:13:01;;;;;;;2.9;2;;;;;;;;;;;;;
2023/02/20 08:15:28;;;;;;;2.8;1.9;;;;;;;;;;;;;
2023/02/20 08:17:53;;;;;;;3.7;2.6;;;;;;;;;;;;;
2023/02/20 08:20:19;;;;;;;3.1;1.9;;;;;;;;;;;;;
2023/02/20 08:22:44;;;;;;;3.7;1.7;;;;;;;;;;;;;
2023/02/20 08:25:11;;;;;;;3.2;2.3;;;;;;;;;;;;;
2023/02/20 08:27:37;;;;;;;6.2;2.3;;;;;;;;;;;;;
2023/02/20 08:30:05;;;;;;;11.5;1.8;;;;;;;;;;;;;
2023/02/20 08:32:30;;;;;;;5;2.3;;;;;;;;;;;;;
2023/02/20 08:34:56;;;;;;;4.1;2.1;;;;;;;;;;;;;
2023/02/20 08:37:21;;;;;;;4.2;1.7;;;;;;;;;;;;;
2023/02/20 08:39:47;;;;;;;1.8;1.6;;;;;;;;;;;;;
2023/02/20 08:42:12;;;;;;;8.6;2.4;;;;;;;;;;;;;
2023/02/20 08:44:37;;;;;;;5;1.7;;;;;;;;;;;;;
2023/02/20 08:47:02;;;;;;;5.3;1.6;;;;;;;;;;;;;
2023/02/20 08:49:29;;;;;;;3.8;1.9;;;;;;;;;;;;;
2023/02/20 08:51:54;;;;;;;1.8;1.3;;;;;;;;;;;;;
2023/02/20 08:54:20;;;;;;;4.8;1.8;;;;;;;;;;;;;
2023/02/20 08:56:45;;;;;;;6.5;1.7;;;;;;;;;;;;;
2023/02/20 08:59:13;;;;;;;12;2.2;;;;;;;;;;;;;
2023/02/20 09:01:38;;;;;;;2.4;1.2;;;;;;;;;;;;;
2023/02/20 09:04:07;;;;;;;12.8;2.7;;;;;;;;;;;;;
2023/02/20 09:06:31;;;;;;;3.7;1;;;;;;;;;;;;;
2023/02/20 09:08:56;;;;;;;4.3;1.7;;;;;;;;;;;;;
2023/02/20 09:11:21;;;;;;;8.1;1.7;;;;;;;;;;;;;
2023/02/20 09:13:46;;;;;;;8.8;2;;;;;;;;;;;;;
2023/02/20 09:16:11;;;;;;;8.1;1.7;;;;;;;;;;;;;
2023/02/20 09:18:41;;;;;;;4.9;1.5;;;;;;;;;;;;;
2023/02/20 09:21:06;;;;;;;1.5;1.3;;;;;;;;;;;;;
2023/02/20 09:23:34;;;;;;;1.5;1;;;;;;;;;;;;;
2023/02/20 09:25:59;;;;;;;6.6;1.4;;;;;;;;;;;;;
2023/02/20 09:28:25;;;;;;;6.1;1.5;;;;;;;;;;;;;
2023/02/20 09:30:53;;;;;;;3.2;1.9;;;;;;;;;;;;;
2023/02/20 09:33:16;;;;;;;3.2;1.1;;;;;;;;;;;;;
2023/02/20 09:35:41;;;;;;;7.8;2;;;;;;;;;;;;;
2023/02/20 09:38:07;;;;;;;1.7;0.9;;;;;;;;;;;;;
2023/02/20 09:40:34;;;;;;;2.4;0.8;;;;;;;;;;;;;
2023/02/20 09:42:59;;;;;;;10.1;1.6;;;;;;;;;;;;;
2023/02/20 09:45:24;;;;;;;2;1.3;;;;;;;;;;;;;
2023/02/20 09:47:49;;;;;;;4.1;1.2;;;;;;;;;;;;;
2023/02/20 09:50:15;;;;;;;4.8;1.2;;;;;;;;;;;;;
2023/02/20 09:52:44;;;;;;;3.4;1.1;;;;;;;;;;;;;
2023/02/20 09:55:09;;;;;;;10;1.5;;;;;;;;;;;;;
2023/02/20 09:57:34;;;;;;;4.2;1.1;;;;;;;;;;;;;
2023/02/20 09:59:59;;;;;;;10.1;1.9;;;;;;;;;;;;;
2023/02/20 10:02:27;;;;;;;1.2;0.6;;;;;;;;;;;;;
2023/02/20 10:04:52;;;;;;;1.6;0.6;;;;;;;;;;;;;
2023/02/20 10:07:18;;;;;;;1.3;0.6;;;;;;;;;;;;;
2023/02/20 10:09:43;;;;;;;4.6;0.9;;;;;;;;;;;;;
2023/02/20 10:12:10;;;;;;;1;0.6;;;;;;;;;;;;;
2023/02/20 10:14:35;;;;;;;2;0.7;;;;;;;;;;;;;
2023/02/20 10:17:00;;;;;;;7.8;1.9;;;;;;;;;;;;;
2023/02/20 10:19:25;;;;;;;1.5;0.6;;;;;;;;;;;;;
2023/02/20 10:21:50;;;;;;;3.5;0.9;;;;;;;;;;;;;
2023/02/20 10:24:19;;;;;;;3.8;0.9;;;;;;;;;;;;;
2023/02/20 10:26:43;;;;;;;2.6;0.8;;;;;;;;;;;;;
2023/02/20 10:29:08;;;;;;;5.3;1.1;;;;;;;;;;;;;
2023/02/20 10:31:35;;;;;;;3;1.1;;;;;;;;;;;;;
2023/02/20 10:34:00;;;;;;;3.1;0.9;;;;;;;;;;;;;
2023/02/20 10:36:27;;;;;;;3.7;1.2;;;;;;;;;;;;;
2023/02/20 10:38:52;;;;;;;0.8;0.6;;;;;;;;;;;;;
2023/02/20 10:41:19;;;;;;;2.6;0.9;;;;;;;;;;;;;
2023/02/20 10:43:44;;;;;;;6.2;5.6;;;;;;;;;;;;;
2023/02/20 10:46:14;;;;;;;6.2;1.4;;;;;;;;;;;;;
2023/02/20 10:48:44;;;;;;;2.9;0.9;;;;;;;;;;;;;
2023/02/20 10:51:07;;;;;;;4.2;0.8;;;;;;;;;;;;;
2023/02/20 10:53:32;;;;;;;1.8;0.7;;;;;;;;;;;;;
2023/02/20 10:55:59;;;;;;;3.5;0.9;;;;;;;;;;;;;
2023/02/20 10:58:24;;;;;;;1.3;0.4;;;;;;;;;;;;;
2023/02/20 11:00:49;;;;;;;1.4;0.8;;;;;;;;;;;;;
2023/02/20 11:03:16;;;;;;;4.4;1;;;;;;;;;;;;;
2023/02/20 11:05:42;;;;;;;1.1;0.7;;;;;;;;;;;;;
2023/02/20 11:08:07;;;;;;;3.5;0.8;;;;;;;;;;;;;
2023/02/20 11:10:34;;;;;;;4.3;0.8;;;;;;;;;;;;;
2023/02/20 11:12:59;;;;;;;1.4;0.6;;;;;;;;;;;;;
2023/02/20 11:15:22;;;;;;;2.4;0.9;;;;;;;;;;;;;
2023/02/20 11:17:50;;;;;;;1.9;0.7;;;;;;;;;;;;;
2023/02/20 11:20:15;;;;;;;1.2;0.6;;;;;;;;;;;;;
2023/02/20 11:22:41;;;;;;;0.5;0.5;;;;;;;;;;;;;
2023/02/20 11:25:07;;;;;;;1.1;0.6;;;;;;;;;;;;;
2023/02/20 11:27:34;;;;;;;2;0.7;;;;;;;;;;;;;
2023/02/20 11:29:59;;;;;;;1.4;0.7;;;;;;;;;;;;;
2023/02/20 11:32:25;;;;;;;1.9;0.6;;;;;;;;;;;;;
2023/02/20 11:34:50;;;;;;;0.9;0.6;;;;;;;;;;;;;
2023/02/20 11:37:16;;;;;;;1.5;0.7;;;;;;;;;;;;;
2023/02/20 11:39:42;;;;;;;1.3;0.7;;;;;;;;;;;;;
2023/02/20 11:42:07;;;;;;;0.5;0.4;;;;;;;;;;;;;
2023/02/20 11:44:33;;;;;;;1.4;0.6;;;;;;;;;;;;;
2023/02/20 11:46:58;;;;;;;1.6;0.6;;;;;;;;;;;;;
2023/02/20 11:49:24;;;;;;;0.8;0.6;;;;;;;;;;;;;
2023/02/20 11:51:50;;;;;;;1.3;0.5;;;;;;;;;;;;;
2023/02/20 11:54:14;;;;;;;1.4;0.5;;;;;;;;;;;;;
2023/02/20 11:56:41;;;;;;;2.7;0.9;;;;;;;;;;;;;
2023/02/20 11:59:05;;;;;;;1.8;0.6;;;;;;;;;;;;;
2023/02/20 12:01:30;;;;;;;2.1;0.7;;;;;;;;;;;;;
2023/02/20 12:03:55;;;;;;;1.1;0.4;;;;;;;;;;;;;
2023/02/20 12:06:20;;;;;;;0.8;0.6;;;;;;;;;;;;;
2023/02/20 12:08:45;;;;;;;1.1;0.6;;;;;;;;;;;;;
2023/02/20 12:11:12;;;;;;;0.7;0.6;;;;;;;;;;;;;
2023/02/20 12:13:37;;;;;;;0.4;0.4;;;;;;;;;;;;;
2023/02/20 12:16:05;;;;;;;1.4;0.4;;;;;;;;;;;;;
2023/02/20 12:18:30;;;;;;;1.5;0.6;;;;;;;;;;;;;
2023/02/20 12:20:56;;;;;;;0.5;0.5;;;;;;;;;;;;;
2023/02/20 12:23:23;;;;;;;0.8;0.4;;;;;;;;;;;;;
2023/02/20 12:25:48;;;;;;;1.6;0.5;;;;;;;;;;;;;
2023/02/20 12:28:15;;;;;;;0.4;0.4;;;;;;;;;;;;;
2023/02/20 12:30:40;;;;;;;0.7;0.5;;;;;;;;;;;;;
2023/02/20 12:33:05;;;;;;;0.5;0.5;;;;;;;;;;;;;
2023/02/20 12:35:34;;;;;;;0.5;0.5;;;;;;;;;;;;;
2023/02/20 12:38:00;;;;;;;2.2;0.8;;;;;;;;;;;;;
2023/02/20 12:40:25;;;;;;;0.6;0.6;;;;;;;;;;;;;
2023/02/20 12:42:50;;;;;;;0.9;0.5;;;;;;;;;;;;;
2023/02/20 12:45:15;;;;;;;0.8;0.6;;;;;;;;;;;;;
2023/02/20 12:47:45;;;;;;;1.1;0.6;;;;;;;;;;;;;
2023/02/20 12:50:10;;;;;;;1.1;0.6;;;;;;;;;;;;;
2023/02/20 12:52:35;;;;;;;1.1;0.6;;;;;;;;;;;;;
2023/02/20 12:55:00;;;;;;;0.4;0.4;;;;;;;;;;;;;
2023/02/20 12:57:28;;;;;;;0.7;0.5;;;;;;;;;;;;;
2023/02/20 12:59:53;;;;;;;1.2;0.9;;;;;;;;;;;;;
2023/02/20 13:02:19;;;;;;;1.4;0.7;;;;;;;;;;;;;
2023/02/20 13:04:44;;;;;;;1.6;0.5;;;;;;;;;;;;;
2023/02/20 13:07:19;;;;;;;1.3;0.6;;;;;;;;;;;;;
2023/02/20 13:09:45;;;;;;;2.5;0.7;;;;;;;;;;;;;
2023/02/20 13:12:10;;;;;;;0.6;0.5;;;;;;;;;;;;;
2023/02/20 13:14:35;;;;;;;0.6;0.5;;;;;;;;;;;;;
2023/02/20 13:17:00;;;;;;;1.1;0.6;;;;;;;;;;;;;
2023/02/20 13:19:25;;;;;;;1.5;0.7;;;;;;;;;;;;;
2023/02/20 13:21:50;;;;;;;0.8;0.7;;;;;;;;;;;;;
2023/02/20 13:24:16;;;;;;;0.9;0.7;;;;;;;;;;;;;
2023/02/20 13:26:41;;;;;;;1.7;0.7;;;;;;;;;;;;;
2023/02/20 13:29:07;;;;;;;2.6;0.7;;;;;;;;;;;;;
2023/02/20 13:31:32;;;;;;;1;0.7;;;;;;;;;;;;;
2023/02/20 13:33:57;;;;;;;1.8;0.6;;;;;;;;;;;;;
2023/02/20 13:36:23;;;;;;;1.1;0.5;;;;;;;;;;;;;
2023/02/20 13:38:48;;;;;;;3.9;0.6;;;;;;;;;;;;;
2023/02/20 13:41:29;;;;;;;1.2;0.5;;;;;;;;;;;;;
2023/02/20 13:43:54;;;;;;;0.9;0.5;;;;;;;;;;;;;
2023/02/20 13:46:26;;;;;;;1.2;0.6;;;;;;;;;;;;;
2023/02/20 13:48:46;;;;;;;1.3;0.8;;;;;;;;;;;;;
2023/02/20 13:51:13;;;;;;;1;0.5;;;;;;;;;;;;;
2023/02/20 13:53:38;;;;;;;0.8;0.5;;;;;;;;;;;;;
2023/02/20 13:56:03;;;;;;;0.7;0.7;;;;;;;;;;;;;
2023/02/20 13:58:32;;;;;;;1.2;0.7;;;;;;;;;;;;;
2023/02/20 14:00:58;;;;;;;1;0.7;;;;;;;;;;;;;
2023/02/20 14:03:25;;;;;;;1.5;0.7;;;;;;;;;;;;;
2023/02/20 14:05:53;;;;;;;1.6;1.1;;;;;;;;;;;;;
2023/02/20 14:08:19;;;;;;;0.9;0.7;;;;;;;;;;;;;
2023/02/20 14:10:46;;;;;;;2.2;0.7;;;;;;;;;;;;;
2023/02/20 14:13:09;;;;;;;0.5;0.5;;;;;;;;;;;;;
2023/02/20 14:15:38;;;;;;;1;0.7;;;;;;;;;;;;;
2023/02/20 14:18:03;;;;;;;1.9;0.7;;;;;;;;;;;;;
2023/02/20 14:20:28;;;;;;;2.1;0.7;;;;;;;;;;;;;
2023/02/20 14:22:53;;;;;;;1.7;1;;;;;;;;;;;;;
2023/02/20 14:25:18;;;;;;;1.9;0.7;;;;;;;;;;;;;
2023/02/20 14:27:44;;;;;;;1.2;1.1;;;;;;;;;;;;;
2023/02/20 14:30:11;;;;;;;3.1;0.7;;;;;;;;;;;;;
2023/02/20 14:32:36;;;;;;;1.2;0.6;;;;;;;;;;;;;
2023/02/20 14:35:04;;;;;;;1.5;0.7;;;;;;;;;;;;;
2023/02/20 14:37:28;;;;;;;1.7;0.7;;;;;;;;;;;;;
2023/02/20 14:39:53;;;;;;;2.4;0.8;;;;;;;;;;;;;
2023/02/20 14:42:18;;;;;;;2.4;0.7;;;;;;;;;;;;;
2023/02/20 14:44:44;;;;;;;1.4;0.6;;;;;;;;;;;;;
2023/02/20 14:47:08;;;;;;;1.4;0.7;;;;;;;;;;;;;
2023/02/20 14:49:34;;;;;;;4.3;1.2;;;;;;;;;;;;;
2023/02/20 14:51:59;;;;;;;2;1;;;;;;;;;;;;;
2023/02/20 14:54:28;;;;;;;0.7;0.7;;;;;;;;;;;;;
2023/02/20 14:56:50;;;;;;;1.3;0.7;;;;;;;;;;;;;
2023/02/20 14:59:16;;;;;;;1.5;0.7;;;;;;;;;;;;;
2023/02/20 15:01:46;;;;;;;6.6;1.4;;;;;;;;;;;;;
2023/02/20 15:04:19;;;;;;;3.3;1.3;;;;;;;;;;;;;
2023/02/20 15:06:44;;;;;;;1.1;0.9;;;;;;;;;;;;;
2023/02/20 15:09:10;;;;;;;1.3;0.6;;;;;;;;;;;;;
2023/02/20 15:11:36;;;;;;;2.3;0.6;;;;;;;;;;;;;
2023/02/20 15:14:01;;;;;;;0.7;0.7;;;;;;;;;;;;;
2023/02/20 15:16:26;;;;;;;1;0.7;;;;;;;;;;;;;
2023/02/20 15:18:53;;;;;;;1.5;1;;;;;;;;;;;;;
2023/02/20 15:21:18;;;;;;;2.4;1.2;;;;;;;;;;;;;
2023/02/20 15:23:43;;;;;;;3.7;2.1;;;;;;;;;;;;;
2023/02/20 15:26:10;;;;;;;2.4;2.2;;;;;;;;;;;;;
2023/02/20 15:28:35;;;;;;;2.7;1.7;;;;;;;;;;;;;
2023/02/20 15:31:00;;;;;;;2.2;1.8;;;;;;;;;;;;;
2023/02/20 15:33:25;;;;;;;2.1;1;;;;;;;;;;;;;
2023/02/20 15:35:52;;;;;;;3.1;1.4;;;;;;;;;;;;;
2023/02/20 15:38:17;;;;;;;4.6;1.6;;;;;;;;;;;;;
2023/02/20 15:40:43;;;;;;;2.3;1.3;;;;;;;;;;;;;
2023/02/20 15:43:08;;;;;;;9.9;6.7;;;;;;;;;;;;;
2023/02/20 15:45:37;;;;;;;7.3;6;;;;;;;;;;;;;
2023/02/20 15:48:01;;;;;;;10.9;6.2;;;;;;;;;;;;;
2023/02/20 15:50:28;;;;;;;14.2;7.5;;;;;;;;;;;;;
2023/02/20 15:52:52;;;;;;;13.4;9.5;;;;;;;;;;;;;
2023/02/20 15:55:19;;;;;;;11.4;6.3;;;;;;;;;;;;;
2023/02/20 15:57:44;;;;;;;12.6;4.4;;;;;;;;;;;;;
2023/02/20 16:00:13;;;;;;;14;5.2;;;;;;;;;;;;;
2023/02/20 16:02:37;;;;;;;11;4;;;;;;;;;;;;;
2023/02/20 16:05:05;;;;;;;7.8;3;;;;;;;;;;;;;
2023/02/20 16:07:30;;;;;;;19.3;4.1;;;;;;;;;;;;;
2023/02/20 16:09:59;;;;;;;10.5;4.3;;;;;;;;;;;;;
2023/02/20 16:12:30;;;;;;;10.5;4.3;;;;;;;;;;;;;
2023/02/20 16:14:53;;;;;;;9.7;4.2;;;;;;;;;;;;;
2023/02/20 16:17:18;;;;;;;6.3;3.8;;;;;;;;;;;;;
2023/02/20 16:19:44;;;;;;;11;6.4;;;;;;;;;;;;;
2023/02/20 16:22:10;;;;;;;11.2;6.3;;;;;;;;;;;;;
2023/02/20 16:24:35;;;;;;;9.5;4.9;;;;;;;;;;;;;
2023/02/20 16:27:00;;;;;;;17.3;5.7;;;;;;;;;;;;;
2023/02/20 16:29:25;;;;;;;12.8;5.2;;;;;;;;;;;;;
2023/02/20 16:31:52;;;;;;;14.1;4.5;;;;;;;;;;;;;
2023/02/20 16:34:17;;;;;;;13.8;4.1;;;;;;;;;;;;;
2023/02/20 16:36:45;;;;;;;6.4;3.3;;;;;;;;;;;;;
2023/02/20 16:39:10;;;;;;;6.7;3.7;;;;;;;;;;;;;
2023/02/20 16:41:36;;;;;;;12.2;4.2;;;;;;;;;;;;;
2023/02/20 16:44:01;;;;;;;8;3.1;;;;;;;;;;;;;
2023/02/20 16:46:26;;;;;;;10.6;4.7;;;;;;;;;;;;;
2023/02/20 16:48:52;;;;;;;15;6.1;;;;;;;;;;;;;
2023/02/20 16:51:20;;;;;;;9.7;4.4;;;;;;;;;;;;;
2023/02/20 16:53:44;;;;;;;6.7;3.9;;;;;;;;;;;;;
2023/02/20 16:56:10;;;;;;;7;3.1;;;;;;;;;;;;;
2023/02/20 16:58:35;;;;;;;9.6;3.5;;;;;;;;;;;;;
2023/02/20 17:01:01;;;;;;;4.7;1.4;;;;;;;;;;;;;
2023/02/20 17:03:26;;;;;;;3.5;1.8;;;;;;;;;;;;;
2023/02/20 17:05:58;;;;;;;11.3;4.9;;;;;;;;;;;;;
2023/02/20 17:08:17;;;;;;;10.6;4.4;;;;;;;;;;;;;
2023/02/20 17:10:43;;;;;;;9.9;3.9;;;;;;;;;;;;;
2023/02/20 17:13:08;;;;;;;10.8;5.4;;;;;;;;;;;;;
2023/02/20 17:15:36;;;;;;;12.1;4.8;;;;;;;;;;;;;
2023/02/20 17:18:01;;;;;;;11.3;6.2;;;;;;;;;;;;;
2023/02/20 17:20:27;;;;;;;13;5.7;;;;;;;;;;;;;
2023/02/20 17:22:52;;;;;;;10.3;3.4;;;;;;;;;;;;;
2023/02/20 17:25:18;;;;;;;11.8;3.4;;;;;;;;;;;;;
2023/02/20 17:27:43;;;;;;;9.6;2.8;;;;;;;;;;;;;
2023/02/20 17:30:08;;;;;;;8.7;2.6;;;;;;;;;;;;;
2023/02/20 17:32:33;;;;;;;9;3.1;;;;;;;;;;;;;
2023/02/20 17:35:00;;;;;;;14.3;5.4;;;;;;;;;;;;;
2023/02/20 17:37:25;;;;;;;15.7;9.2;;;;;;;;;;;;;
2023/02/20 17:39:53;;;;;;;8.7;4.2;;;;;;;;;;;;;
2023/02/20 17:42:17;;;;;;;10;6.4;;;;;;;;;;;;;
2023/02/20 17:44:43;;;;;;;13.3;8.7;;;;;;;;;;;;;
2023/02/20 17:47:10;;;;;;;13.8;7.4;;;;;;;;;;;;;
2023/02/20 17:49:35;;;;;;;12.7;6.8;;;;;;;;;;;;;
2023/02/20 17:52:00;;;;;;;17.8;6.8;;;;;;;;;;;;;
2023/02/20 17:54:27;;;;;;;11.9;6.4;;;;;;;;;;;;;
2023/02/20 17:56:52;;;;;;;12.6;5.7;;;;;;;;;;;;;
2023/02/20 17:59:18;;;;;;;17.6;7.6;;;;;;;;;;;;;
2023/02/20 18:01:43;;;;;;;16.4;6.7;;;;;;;;;;;;;
2023/02/20 18:04:09;;;;;;;10.3;6;;;;;;;;;;;;;
2023/02/20 18:06:34;;;;;;;9.6;5.8;;;;;;;;;;;;;
2023/02/20 18:08:59;;;;;;;11;5.7;;;;;;;;;;;;;
2023/02/20 18:11:26;;;;;;;12.7;6.5;;;;;;;;;;;;;
2023/02/20 18:13:49;;;;;;;11.9;6.3;;;;;;;;;;;;;
2023/02/20 18:16:17;;;;;;;14.7;7.2;;;;;;;;;;;;;
2023/02/20 18:18:42;;;;;;;13.7;6.6;;;;;;;;;;;;;
2023/02/20 18:21:07;;;;;;;15.3;7.6;;;;;;;;;;;;;
2023/02/20 18:23:32;;;;;;;12.5;7.7;;;;;;;;;;;;;
2023/02/20 18:25:57;;;;;;;18.5;8.4;;;;;;;;;;;;;
2023/02/20 18:28:22;;;;;;;12.4;8.3;;;;;;;;;;;;;
2023/02/20 18:30:47;;;;;;;13.4;8.5;;;;;;;;;;;;;
2023/02/20 18:33:14;;;;;;;14.2;7.1;;;;;;;;;;;;;
2023/02/20 18:35:39;;;;;;;12.6;7.6;;;;;;;;;;;;;
2023/02/20 18:38:05;;;;;;;14.2;7.7;;;;;;;;;;;;;
2023/02/20 18:40:30;;;;;;;14.8;7.7;;;;;;;;;;;;;
2023/02/20 18:42:56;;;;;;;16.6;9.1;;;;;;;;;;;;;
2023/02/20 18:45:22;;;;;;;15.5;8.8;;;;;;;;;;;;;
2023/02/20 18:47:50;;;;;;;18.9;9.3;;;;;;;;;;;;;
2023/02/20 18:50:15;;;;;;;19.9;9.9;;;;;;;;;;;;;
2023/02/20 18:52:41;;;;;;;12.1;7.9;;;;;;;;;;;;;
2023/02/20 18:55:06;;;;;;;12.6;8.4;;;;;;;;;;;;;
2023/02/20 18:57:32;;;;;;;11.3;6.6;;;;;;;;;;;;;
2023/02/20 18:59:57;;;;;;;11.4;7.3;;;;;;;;;;;;;
2023/02/20 19:02:25;;;;;;;10.5;6.5;;;;;;;;;;;;;
2023/02/20 19:04:57;;;;;;;14.2;8.2;;;;;;;;;;;;;
2023/02/20 19:07:21;;;;;;;18.9;9.1;;;;;;;;;;;;;
2023/02/20 19:09:49;;;;;;;18;9.4;;;;;;;;;;;;;
2023/02/20 19:12:12;;;;;;;13.9;7.3;;;;;;;;;;;;;
2023/02/20 19:14:37;;;;;;;13.4;7.5;;;;;;;;;;;;;
2023/02/20 19:17:02;;;;;;;11.5;6.8;;;;;;;;;;;;;
2023/02/20 19:19:29;;;;;;;23;15.2;;;;;;;;;;;;;
2023/02/20 19:21:53;;;;;;;17.1;11.8;;;;;;;;;;;;;
2023/02/20 19:24:20;;;;;;;19.4;11.9;;;;;;;;;;;;;
2023/02/20 19:26:45;;;;;;;14.5;8.1;;;;;;;;;;;;;
2023/02/20 19:29:10;;;;;;;13.7;8.8;;;;;;;;;;;;;
2023/02/20 19:31:35;;;;;;;13.1;7.7;;;;;;;;;;;;;
2023/02/20 19:34:02;;;;;;;12.4;8.3;;;;;;;;;;;;;
2023/02/20 19:36:27;;;;;;;17.9;10.8;;;;;;;;;;;;;
2023/02/20 19:38:53;;;;;;;16.9;10.6;;;;;;;;;;;;;
2023/02/20 19:41:19;;;;;;;17;10.7;;;;;;;;;;;;;
2023/02/20 19:43:44;;;;;;;20.5;10.8;;;;;;;;;;;;;
2023/02/20 19:46:09;;;;;;;13;7.8;;;;;;;;;;;;;
2023/02/20 19:48:34;;;;;;;15.1;7.9;;;;;;;;;;;;;
2023/02/20 19:50:59;;;;;;;14.6;8.8;;;;;;;;;;;;;
2023/02/20 19:53:27;;;;;;;36.9;23;;;;;;;;;;;;;
2023/02/20 19:55:53;;;;;;;24.2;13.2;;;;;;;;;;;;;
2023/02/20 19:58:18;;;;;;;8.8;6.1;;;;;;;;;;;;;
2023/02/20 20:00:43;;;;;;;9.1;5.7;;;;;;;;;;;;;
2023/02/20 20:03:10;;;;;;;13.5;6.6;;;;;;;;;;;;;
2023/02/20 20:05:34;;;;;;;13.2;6.6;;;;;;;;;;;;;
2023/02/20 20:07:59;;;;;;;14.2;6.5;;;;;;;;;;;;;
2023/02/20 20:10:27;;;;;;;20.1;18.2;;;;;;;;;;;;;
2023/02/20 20:12:50;;;;;;;16.5;10.3;;;;;;;;;;;;;
2023/02/20 20:15:18;;;;;;;35.6;27.3;;;;;;;;;;;;;
2023/02/20 20:17:42;;;;;;;29.9;17.1;;;;;;;;;;;;;
2023/02/20 20:20:10;;;;;;;26.8;13.4;;;;;;;;;;;;;
2023/02/20 20:22:34;;;;;;;24.4;13.8;;;;;;;;;;;;;
2023/02/20 20:24:59;;;;;;;27.6;14.3;;;;;;;;;;;;;
2023/02/20 20:27:24;;;;;;;26.3;14.5;;;;;;;;;;;;;
2023/02/20 20:29:50;;;;;;;22.4;12.2;;;;;;;;;;;;;
2023/02/20 20:32:16;;;;;;;20.4;12;;;;;;;;;;;;;